sensor_id;sensor_type;location;lat;lon;timestamp;P1;durP1;ratioP1;P2;durP2;ratioP2
5937;SDS011;2994;51.220;4.412;2023-07-13T00:01:34;3.13;;;2.23;;
5937;SDS011;2994;51.220;4.412;2023-07-13T00:04:01;7.30;;;2.43;;
5937;SDS011;2994;51.220;4.412;2023-07-13T00:06:26;6.70;;;3.63;;
5937;SDS011;2994;51.220;4.412;2023-07-13T00:08:57;7.87;;;2.73;;
5937;SDS011;2994;51.220;4.412;2023-07-13T00:11:24;4.17;;;3.00;;
5937;SDS011;2994;51.220;4.412;2023-07-13T00:13:49;7.57;;;3.50;;
5937;SDS011;2994;51.220;4.412;2023-07-13T00:16:16;4.53;;;2.70;;
5937;SDS011;2994;51.220;4.412;2023-07-13T00:18:43;3.90;;;2.60;;
5937;SDS011;2994;51.220;4.412;2023-07-13T00:21:09;6.50;;;2.70;;
5937;SDS011;2994;51.220;4.412;2023-07-13T00:23:35;7.23;;;4.10;;
5937;SDS011;2994;51.220;4.412;2023-07-13T00:26:05;8.00;;;3.57;;
5937;SDS011;2994;51.220;4.412;2023-07-13T00:28:32;4.30;;;3.87;;
5937;SDS011;2994;51.220;4.412;2023-07-13T00:30:59;9.63;;;4.40;;
5937;SDS011;2994;51.220;4.412;2023-07-13T00:33:25;9.20;;;4.03;;
5937;SDS011;2994;51.220;4.412;2023-07-13T00:35:53;4.93;;;3.17;;
5937;SDS011;2994;51.220;4.412;2023-07-13T00:38:19;9.33;;;3.93;;
5937;SDS011;2994;51.220;4.412;2023-07-13T00:40:45;4.93;;;3.37;;
5937;SDS011;2994;51.220;4.412;2023-07-13T00:43:15;5.77;;;2.53;;
5937;SDS011;2994;51.220;4.412;2023-07-13T00:48:08;3.50;;;2.80;;
5937;SDS011;2994;51.220;4.412;2023-07-13T00:50:34;4.40;;;2.90;;
5937;SDS011;2994;51.220;4.412;2023-07-13T00:53:00;6.50;;;2.63;;
5937;SDS011;2994;51.220;4.412;2023-07-13T00:55:26;5.47;;;2.37;;
5937;SDS011;2994;51.220;4.412;2023-07-13T00:57:52;8.40;;;2.90;;
5937;SDS011;2994;51.220;4.412;2023-07-13T01:00:17;5.67;;;2.50;;
5937;SDS011;2994;51.220;4.412;2023-07-13T01:02:45;6.83;;;2.87;;
5937;SDS011;2994;51.220;4.412;2023-07-13T01:05:14;5.03;;;2.90;;
5937;SDS011;2994;51.220;4.412;2023-07-13T01:07:41;5.33;;;2.90;;
5937;SDS011;2994;51.220;4.412;2023-07-13T01:10:08;6.87;;;3.87;;
5937;SDS011;2994;51.220;4.412;2023-07-13T01:12:35;7.67;;;3.53;;
5937;SDS011;2994;51.220;4.412;2023-07-13T01:15:01;6.07;;;4.17;;
5937;SDS011;2994;51.220;4.412;2023-07-13T01:17:28;7.97;;;3.73;;
5937;SDS011;2994;51.220;4.412;2023-07-13T01:19:54;6.33;;;3.87;;
5937;SDS011;2994;51.220;4.412;2023-07-13T01:22:19;6.13;;;3.23;;
5937;SDS011;2994;51.220;4.412;2023-07-13T01:24:50;8.03;;;3.73;;
5937;SDS011;2994;51.220;4.412;2023-07-13T01:27:17;10.30;;;4.30;;
5937;SDS011;2994;51.220;4.412;2023-07-13T01:29:46;6.50;;;4.00;;
5937;SDS011;2994;51.220;4.412;2023-07-13T01:32:16;8.00;;;4.07;;
5937;SDS011;2994;51.220;4.412;2023-07-13T01:34:49;6.90;;;3.87;;
5937;SDS011;2994;51.220;4.412;2023-07-13T01:37:15;6.83;;;3.90;;
5937;SDS011;2994;51.220;4.412;2023-07-13T01:39:40;4.60;;;3.13;;
5937;SDS011;2994;51.220;4.412;2023-07-13T01:42:06;6.93;;;3.30;;
5937;SDS011;2994;51.220;4.412;2023-07-13T01:44:31;6.77;;;4.00;;
5937;SDS011;2994;51.220;4.412;2023-07-13T01:46:58;7.43;;;3.33;;
5937;SDS011;2994;51.220;4.412;2023-07-13T01:49:23;6.20;;;3.77;;
5937;SDS011;2994;51.220;4.412;2023-07-13T01:51:49;10.73;;;5.20;;
5937;SDS011;2994;51.220;4.412;2023-07-13T01:54:14;8.80;;;4.13;;
5937;SDS011;2994;51.220;4.412;2023-07-13T01:56:40;7.30;;;3.57;;
5937;SDS011;2994;51.220;4.412;2023-07-13T01:59:06;8.20;;;4.33;;
5937;SDS011;2994;51.220;4.412;2023-07-13T02:01:32;5.23;;;3.50;;
5937;SDS011;2994;51.220;4.412;2023-07-13T02:03:58;5.33;;;3.83;;
5937;SDS011;2994;51.220;4.412;2023-07-13T02:06:23;8.80;;;3.73;;
5937;SDS011;2994;51.220;4.412;2023-07-13T02:08:49;9.80;;;3.83;;
5937;SDS011;2994;51.220;4.412;2023-07-13T02:11:14;7.93;;;4.10;;
5937;SDS011;2994;51.220;4.412;2023-07-13T02:13:40;10.37;;;4.53;;
5937;SDS011;2994;51.220;4.412;2023-07-13T02:16:05;7.20;;;4.07;;
5937;SDS011;2994;51.220;4.412;2023-07-13T02:18:31;8.30;;;5.27;;
5937;SDS011;2994;51.220;4.412;2023-07-13T02:20:57;6.13;;;4.20;;
5937;SDS011;2994;51.220;4.412;2023-07-13T02:23:22;9.30;;;4.23;;
5937;SDS011;2994;51.220;4.412;2023-07-13T02:25:48;10.20;;;5.27;;
5937;SDS011;2994;51.220;4.412;2023-07-13T02:28:13;11.30;;;4.17;;
5937;SDS011;2994;51.220;4.412;2023-07-13T02:30:39;6.40;;;4.63;;
5937;SDS011;2994;51.220;4.412;2023-07-13T02:33:05;8.53;;;4.23;;
5937;SDS011;2994;51.220;4.412;2023-07-13T02:35:30;8.73;;;3.50;;
5937;SDS011;2994;51.220;4.412;2023-07-13T02:37:56;7.00;;;3.50;;
5937;SDS011;2994;51.220;4.412;2023-07-13T02:40:21;5.03;;;2.63;;
5937;SDS011;2994;51.220;4.412;2023-07-13T02:42:47;7.27;;;3.17;;
5937;SDS011;2994;51.220;4.412;2023-07-13T02:45:13;5.73;;;3.73;;
5937;SDS011;2994;51.220;4.412;2023-07-13T02:47:40;5.97;;;2.80;;
5937;SDS011;2994;51.220;4.412;2023-07-13T02:50:06;6.03;;;2.90;;
5937;SDS011;2994;51.220;4.412;2023-07-13T02:52:32;5.77;;;3.37;;
5937;SDS011;2994;51.220;4.412;2023-07-13T02:54:57;5.33;;;3.00;;
5937;SDS011;2994;51.220;4.412;2023-07-13T02:57:23;5.00;;;3.30;;
5937;SDS011;2994;51.220;4.412;2023-07-13T02:59:48;8.83;;;3.17;;
5937;SDS011;2994;51.220;4.412;2023-07-13T03:02:14;5.03;;;2.93;;
5937;SDS011;2994;51.220;4.412;2023-07-13T03:04:40;7.67;;;2.90;;
5937;SDS011;2994;51.220;4.412;2023-07-13T03:07:06;7.47;;;3.60;;
5937;SDS011;2994;51.220;4.412;2023-07-13T03:09:32;6.90;;;2.50;;
5937;SDS011;2994;51.220;4.412;2023-07-13T03:11:59;9.70;;;3.13;;
5937;SDS011;2994;51.220;4.412;2023-07-13T03:14:24;5.10;;;2.63;;
5937;SDS011;2994;51.220;4.412;2023-07-13T03:16:50;9.00;;;3.00;;
5937;SDS011;2994;51.220;4.412;2023-07-13T03:19:16;7.67;;;2.80;;
5937;SDS011;2994;51.220;4.412;2023-07-13T03:21:42;7.83;;;2.90;;
5937;SDS011;2994;51.220;4.412;2023-07-13T03:24:08;7.40;;;2.97;;
5937;SDS011;2994;51.220;4.412;2023-07-13T03:26:33;9.43;;;2.93;;
5937;SDS011;2994;51.220;4.412;2023-07-13T03:28:59;9.07;;;3.33;;
5937;SDS011;2994;51.220;4.412;2023-07-13T03:31:25;10.87;;;4.43;;
5937;SDS011;2994;51.220;4.412;2023-07-13T03:33:53;8.43;;;3.70;;
5937;SDS011;2994;51.220;4.412;2023-07-13T03:36:20;7.67;;;4.10;;
5937;SDS011;2994;51.220;4.412;2023-07-13T03:38:52;10.70;;;4.83;;
5937;SDS011;2994;51.220;4.412;2023-07-13T03:41:19;11.23;;;4.80;;
5937;SDS011;2994;51.220;4.412;2023-07-13T03:43:45;8.87;;;4.70;;
5937;SDS011;2994;51.220;4.412;2023-07-13T03:46:13;10.07;;;5.00;;
5937;SDS011;2994;51.220;4.412;2023-07-13T03:48:39;7.87;;;4.90;;
5937;SDS011;2994;51.220;4.412;2023-07-13T03:51:06;8.47;;;5.80;;
5937;SDS011;2994;51.220;4.412;2023-07-13T03:53:31;13.27;;;4.83;;
5937;SDS011;2994;51.220;4.412;2023-07-13T03:55:57;7.87;;;4.93;;
5937;SDS011;2994;51.220;4.412;2023-07-13T03:58:23;7.43;;;4.43;;
5937;SDS011;2994;51.220;4.412;2023-07-13T04:00:54;10.07;;;4.40;;
5937;SDS011;2994;51.220;4.412;2023-07-13T04:03:20;8.80;;;4.63;;
5937;SDS011;2994;51.220;4.412;2023-07-13T04:05:46;11.57;;;4.77;;
5937;SDS011;2994;51.220;4.412;2023-07-13T04:08:11;8.70;;;4.70;;
5937;SDS011;2994;51.220;4.412;2023-07-13T04:10:37;6.80;;;3.90;;
5937;SDS011;2994;51.220;4.412;2023-07-13T04:13:03;10.00;;;4.70;;
5937;SDS011;2994;51.220;4.412;2023-07-13T04:15:30;8.90;;;5.33;;
5937;SDS011;2994;51.220;4.412;2023-07-13T04:17:56;13.77;;;5.13;;
5937;SDS011;2994;51.220;4.412;2023-07-13T04:20:22;8.27;;;5.07;;
5937;SDS011;2994;51.220;4.412;2023-07-13T04:22:49;10.20;;;5.37;;
5937;SDS011;2994;51.220;4.412;2023-07-13T04:25:14;12.40;;;5.07;;
5937;SDS011;2994;51.220;4.412;2023-07-13T04:27:40;7.90;;;5.03;;
5937;SDS011;2994;51.220;4.412;2023-07-13T04:30:06;10.93;;;5.23;;
5937;SDS011;2994;51.220;4.412;2023-07-13T04:32:32;9.93;;;4.90;;
5937;SDS011;2994;51.220;4.412;2023-07-13T04:34:57;11.23;;;5.13;;
5937;SDS011;2994;51.220;4.412;2023-07-13T04:37:24;8.17;;;4.27;;
5937;SDS011;2994;51.220;4.412;2023-07-13T04:39:50;10.90;;;4.97;;
5937;SDS011;2994;51.220;4.412;2023-07-13T04:42:15;7.20;;;4.33;;
5937;SDS011;2994;51.220;4.412;2023-07-13T04:44:41;9.10;;;4.87;;
5937;SDS011;2994;51.220;4.412;2023-07-13T04:47:07;7.77;;;5.00;;
5937;SDS011;2994;51.220;4.412;2023-07-13T04:49:32;8.83;;;4.33;;
5937;SDS011;2994;51.220;4.412;2023-07-13T04:51:57;8.83;;;4.73;;
5937;SDS011;2994;51.220;4.412;2023-07-13T04:54:23;7.00;;;3.90;;
5937;SDS011;2994;51.220;4.412;2023-07-13T04:56:48;7.50;;;4.60;;
5937;SDS011;2994;51.220;4.412;2023-07-13T04:59:14;10.60;;;4.80;;
5937;SDS011;2994;51.220;4.412;2023-07-13T05:01:39;6.73;;;4.33;;
5937;SDS011;2994;51.220;4.412;2023-07-13T05:04:05;5.93;;;4.13;;
5937;SDS011;2994;51.220;4.412;2023-07-13T05:06:31;7.90;;;3.90;;
5937;SDS011;2994;51.220;4.412;2023-07-13T05:08:57;8.50;;;4.40;;
5937;SDS011;2994;51.220;4.412;2023-07-13T05:11:22;11.57;;;4.90;;
5937;SDS011;2994;51.220;4.412;2023-07-13T05:13:48;10.90;;;4.63;;
5937;SDS011;2994;51.220;4.412;2023-07-13T05:16:13;9.37;;;3.90;;
5937;SDS011;2994;51.220;4.412;2023-07-13T05:18:39;6.43;;;3.80;;
5937;SDS011;2994;51.220;4.412;2023-07-13T05:21:05;8.63;;;4.00;;
5937;SDS011;2994;51.220;4.412;2023-07-13T05:23:33;7.10;;;3.90;;
5937;SDS011;2994;51.220;4.412;2023-07-13T05:26:00;7.20;;;4.10;;
5937;SDS011;2994;51.220;4.412;2023-07-13T05:28:27;10.97;;;4.73;;
5937;SDS011;2994;51.220;4.412;2023-07-13T05:30:53;7.80;;;3.73;;
5937;SDS011;2994;51.220;4.412;2023-07-13T05:33:19;6.50;;;4.00;;
5937;SDS011;2994;51.220;4.412;2023-07-13T05:35:45;6.90;;;3.50;;
5937;SDS011;2994;51.220;4.412;2023-07-13T05:38:11;10.13;;;4.20;;
5937;SDS011;2994;51.220;4.412;2023-07-13T05:40:37;5.43;;;3.80;;
5937;SDS011;2994;51.220;4.412;2023-07-13T05:43:02;6.67;;;3.33;;
5937;SDS011;2994;51.220;4.412;2023-07-13T05:45:28;8.73;;;3.80;;
5937;SDS011;2994;51.220;4.412;2023-07-13T05:47:53;8.87;;;4.57;;
5937;SDS011;2994;51.220;4.412;2023-07-13T05:50:19;10.33;;;4.03;;
5937;SDS011;2994;51.220;4.412;2023-07-13T05:52:44;6.13;;;3.63;;
5937;SDS011;2994;51.220;4.412;2023-07-13T05:55:10;8.53;;;4.20;;
5937;SDS011;2994;51.220;4.412;2023-07-13T05:57:35;6.83;;;3.77;;
5937;SDS011;2994;51.220;4.412;2023-07-13T06:00:01;7.87;;;4.03;;
5937;SDS011;2994;51.220;4.412;2023-07-13T06:02:27;6.20;;;3.30;;
5937;SDS011;2994;51.220;4.412;2023-07-13T06:04:52;5.90;;;3.30;;
5937;SDS011;2994;51.220;4.412;2023-07-13T06:07:18;5.80;;;3.80;;
5937;SDS011;2994;51.220;4.412;2023-07-13T06:09:43;10.80;;;5.00;;
5937;SDS011;2994;51.220;4.412;2023-07-13T06:12:09;8.43;;;4.20;;
5937;SDS011;2994;51.220;4.412;2023-07-13T06:14:34;7.63;;;3.50;;
5937;SDS011;2994;51.220;4.412;2023-07-13T06:17:00;8.10;;;3.90;;
5937;SDS011;2994;51.220;4.412;2023-07-13T06:19:25;7.90;;;3.70;;
5937;SDS011;2994;51.220;4.412;2023-07-13T06:21:51;8.50;;;3.83;;
5937;SDS011;2994;51.220;4.412;2023-07-13T06:24:16;8.23;;;4.17;;
5937;SDS011;2994;51.220;4.412;2023-07-13T06:26:42;8.63;;;3.70;;
5937;SDS011;2994;51.220;4.412;2023-07-13T06:29:07;7.17;;;3.97;;
5937;SDS011;2994;51.220;4.412;2023-07-13T06:31:32;10.80;;;4.17;;
5937;SDS011;2994;51.220;4.412;2023-07-13T06:33:58;8.57;;;4.00;;
5937;SDS011;2994;51.220;4.412;2023-07-13T06:36:23;8.37;;;4.13;;
5937;SDS011;2994;51.220;4.412;2023-07-13T06:38:49;6.80;;;3.83;;
5937;SDS011;2994;51.220;4.412;2023-07-13T06:41:14;7.27;;;4.77;;
5937;SDS011;2994;51.220;4.412;2023-07-13T06:43:40;8.23;;;3.70;;
5937;SDS011;2994;51.220;4.412;2023-07-13T06:46:05;11.37;;;4.60;;
5937;SDS011;2994;51.220;4.412;2023-07-13T06:48:31;12.60;;;4.30;;
5937;SDS011;2994;51.220;4.412;2023-07-13T06:50:57;6.30;;;4.00;;
5937;SDS011;2994;51.220;4.412;2023-07-13T06:53:22;7.67;;;4.73;;
5937;SDS011;2994;51.220;4.412;2023-07-13T06:55:48;8.53;;;5.00;;
5937;SDS011;2994;51.220;4.412;2023-07-13T06:58:15;11.23;;;4.20;;
5937;SDS011;2994;51.220;4.412;2023-07-13T07:00:41;7.10;;;4.10;;
5937;SDS011;2994;51.220;4.412;2023-07-13T07:03:07;8.07;;;4.40;;
5937;SDS011;2994;51.220;4.412;2023-07-13T07:05:32;8.03;;;4.13;;
5937;SDS011;2994;51.220;4.412;2023-07-13T07:07:58;8.53;;;5.10;;
5937;SDS011;2994;51.220;4.412;2023-07-13T07:10:24;6.30;;;4.57;;
5937;SDS011;2994;51.220;4.412;2023-07-13T07:12:50;10.10;;;4.23;;
5937;SDS011;2994;51.220;4.412;2023-07-13T07:15:16;9.17;;;3.90;;
5937;SDS011;2994;51.220;4.412;2023-07-13T07:17:43;10.20;;;4.13;;
5937;SDS011;2994;51.220;4.412;2023-07-13T07:20:08;11.50;;;4.67;;
5937;SDS011;2994;51.220;4.412;2023-07-13T07:22:35;8.37;;;4.37;;
5937;SDS011;2994;51.220;4.412;2023-07-13T07:25:00;9.73;;;4.73;;
5937;SDS011;2994;51.220;4.412;2023-07-13T07:27:26;5.87;;;3.90;;
5937;SDS011;2994;51.220;4.412;2023-07-13T07:29:51;9.20;;;4.13;;
5937;SDS011;2994;51.220;4.412;2023-07-13T07:32:18;6.10;;;3.80;;
5937;SDS011;2994;51.220;4.412;2023-07-13T07:34:44;6.87;;;5.17;;
5937;SDS011;2994;51.220;4.412;2023-07-13T07:37:10;9.83;;;4.63;;
5937;SDS011;2994;51.220;4.412;2023-07-13T07:39:37;11.67;;;5.40;;
5937;SDS011;2994;51.220;4.412;2023-07-13T07:42:03;9.53;;;4.87;;
5937;SDS011;2994;51.220;4.412;2023-07-13T07:44:28;8.60;;;5.23;;
5937;SDS011;2994;51.220;4.412;2023-07-13T07:46:55;7.60;;;4.00;;
5937;SDS011;2994;51.220;4.412;2023-07-13T07:49:20;10.27;;;4.00;;
5937;SDS011;2994;51.220;4.412;2023-07-13T07:51:46;7.47;;;4.67;;
5937;SDS011;2994;51.220;4.412;2023-07-13T07:54:12;6.67;;;5.00;;
5937;SDS011;2994;51.220;4.412;2023-07-13T07:56:37;8.50;;;4.73;;
5937;SDS011;2994;51.220;4.412;2023-07-13T07:59:03;7.93;;;5.10;;
5937;SDS011;2994;51.220;4.412;2023-07-13T08:01:28;10.43;;;5.40;;
5937;SDS011;2994;51.220;4.412;2023-07-13T08:03:54;8.70;;;4.60;;
5937;SDS011;2994;51.220;4.412;2023-07-13T08:06:19;5.10;;;3.80;;
5937;SDS011;2994;51.220;4.412;2023-07-13T08:08:45;9.47;;;3.90;;
5937;SDS011;2994;51.220;4.412;2023-07-13T08:11:11;7.60;;;3.97;;
5937;SDS011;2994;51.220;4.412;2023-07-13T08:13:36;11.30;;;4.30;;
5937;SDS011;2994;51.220;4.412;2023-07-13T08:16:03;6.90;;;4.43;;
5937;SDS011;2994;51.220;4.412;2023-07-13T08:18:30;8.10;;;4.37;;
5937;SDS011;2994;51.220;4.412;2023-07-13T08:20:56;8.70;;;4.00;;
5937;SDS011;2994;51.220;4.412;2023-07-13T08:23:21;6.77;;;3.73;;
5937;SDS011;2994;51.220;4.412;2023-07-13T08:25:54;8.27;;;4.33;;
5937;SDS011;2994;51.220;4.412;2023-07-13T08:28:22;11.17;;;5.40;;
5937;SDS011;2994;51.220;4.412;2023-07-13T08:30:47;10.57;;;4.63;;
5937;SDS011;2994;51.220;4.412;2023-07-13T08:33:19;6.73;;;4.47;;
5937;SDS011;2994;51.220;4.412;2023-07-13T08:35:46;5.93;;;4.00;;
5937;SDS011;2994;51.220;4.412;2023-07-13T08:38:16;7.17;;;5.03;;
5937;SDS011;2994;51.220;4.412;2023-07-13T08:40:42;9.60;;;4.80;;
5937;SDS011;2994;51.220;4.412;2023-07-13T08:43:13;6.80;;;4.77;;
5937;SDS011;2994;51.220;4.412;2023-07-13T08:45:46;7.77;;;4.87;;
5937;SDS011;2994;51.220;4.412;2023-07-13T08:48:17;12.83;;;5.50;;
5937;SDS011;2994;51.220;4.412;2023-07-13T08:51:01;7.97;;;5.00;;
5937;SDS011;2994;51.220;4.412;2023-07-13T08:53:38;5.50;;;4.60;;
5937;SDS011;2994;51.220;4.412;2023-07-13T08:56:27;6.40;;;5.00;;
5937;SDS011;2994;51.220;4.412;2023-07-13T08:58:58;8.27;;;4.90;;
5937;SDS011;2994;51.220;4.412;2023-07-13T09:04:35;6.50;;;4.03;;
5937;SDS011;2994;51.220;4.412;2023-07-13T09:12:15;6.53;;;3.60;;
5937;SDS011;2994;51.220;4.412;2023-07-13T09:14:52;6.70;;;3.80;;
5937;SDS011;2994;51.220;4.412;2023-07-13T09:17:22;6.93;;;4.47;;
5937;SDS011;2994;51.220;4.412;2023-07-13T09:19:54;5.67;;;4.57;;
5937;SDS011;2994;51.220;4.412;2023-07-13T09:22:25;11.30;;;5.07;;
5937;SDS011;2994;51.220;4.412;2023-07-13T09:24:55;8.30;;;4.20;;
5937;SDS011;2994;51.220;4.412;2023-07-13T09:27:31;6.77;;;4.03;;
5937;SDS011;2994;51.220;4.412;2023-07-13T09:32:39;7.27;;;3.93;;
5937;SDS011;2994;51.220;4.412;2023-07-13T09:35:12;7.80;;;4.43;;
5937;SDS011;2994;51.220;4.412;2023-07-13T09:37:40;6.40;;;3.83;;
5937;SDS011;2994;51.220;4.412;2023-07-13T09:40:11;6.27;;;3.80;;
5937;SDS011;2994;51.220;4.412;2023-07-13T09:42:53;5.77;;;3.30;;
5937;SDS011;2994;51.220;4.412;2023-07-13T09:45:29;10.60;;;4.80;;
5937;SDS011;2994;51.220;4.412;2023-07-13T09:47:59;6.30;;;4.40;;
5937;SDS011;2994;51.220;4.412;2023-07-13T09:50:28;5.77;;;3.47;;
5937;SDS011;2994;51.220;4.412;2023-07-13T09:52:54;5.73;;;3.17;;
5937;SDS011;2994;51.220;4.412;2023-07-13T09:55:37;6.00;;;3.00;;
5937;SDS011;2994;51.220;4.412;2023-07-13T10:00:40;6.27;;;3.17;;
5937;SDS011;2994;51.220;4.412;2023-07-13T10:03:22;5.43;;;3.37;;
5937;SDS011;2994;51.220;4.412;2023-07-13T10:05:51;6.53;;;3.20;;
5937;SDS011;2994;51.220;4.412;2023-07-13T10:10:46;5.10;;;2.70;;
5937;SDS011;2994;51.220;4.412;2023-07-13T10:13:23;3.23;;;2.77;;
5937;SDS011;2994;51.220;4.412;2023-07-13T10:15:51;8.57;;;3.07;;
5937;SDS011;2994;51.220;4.412;2023-07-13T10:18:17;5.43;;;3.07;;
5937;SDS011;2994;51.220;4.412;2023-07-13T10:20:44;5.53;;;3.30;;
5937;SDS011;2994;51.220;4.412;2023-07-13T10:23:12;6.67;;;3.00;;
5937;SDS011;2994;51.220;4.412;2023-07-13T10:25:45;5.03;;;3.13;;
5937;SDS011;2994;51.220;4.412;2023-07-13T10:28:31;3.07;;;2.77;;
5937;SDS011;2994;51.220;4.412;2023-07-13T10:31:01;4.63;;;2.70;;
5937;SDS011;2994;51.220;4.412;2023-07-13T10:33:30;3.43;;;2.80;;
5937;SDS011;2994;51.220;4.412;2023-07-13T10:36:06;4.90;;;3.30;;
5937;SDS011;2994;51.220;4.412;2023-07-13T10:38:40;2.57;;;2.17;;
5937;SDS011;2994;51.220;4.412;2023-07-13T10:41:08;4.87;;;2.63;;
5937;SDS011;2994;51.220;4.412;2023-07-13T10:43:41;3.47;;;2.50;;
5937;SDS011;2994;51.220;4.412;2023-07-13T10:46:19;7.00;;;4.40;;
5937;SDS011;2994;51.220;4.412;2023-07-13T10:48:48;3.77;;;3.40;;
5937;SDS011;2994;51.220;4.412;2023-07-13T10:51:17;4.47;;;3.57;;
5937;SDS011;2994;51.220;4.412;2023-07-13T10:53:46;4.10;;;2.70;;
5937;SDS011;2994;51.220;4.412;2023-07-13T10:59:05;5.00;;;3.17;;
5937;SDS011;2994;51.220;4.412;2023-07-13T11:01:40;5.80;;;2.67;;
5937;SDS011;2994;51.220;4.412;2023-07-13T11:04:15;5.37;;;3.40;;
5937;SDS011;2994;51.220;4.412;2023-07-13T11:06:41;3.90;;;3.10;;
5937;SDS011;2994;51.220;4.412;2023-07-13T11:12:02;4.80;;;2.50;;
5937;SDS011;2994;51.220;4.412;2023-07-13T11:17:36;2.93;;;2.57;;
5937;SDS011;2994;51.220;4.412;2023-07-13T11:23:26;4.00;;;2.70;;
5937;SDS011;2994;51.220;4.412;2023-07-13T11:25:38;4.90;;;2.47;;
5937;SDS011;2994;51.220;4.412;2023-07-13T11:35:32;9.23;;;4.67;;
5937;SDS011;2994;51.220;4.412;2023-07-13T11:38:01;5.70;;;4.40;;
5937;SDS011;2994;51.220;4.412;2023-07-13T11:40:30;7.20;;;4.73;;
5937;SDS011;2994;51.220;4.412;2023-07-13T11:42:59;6.30;;;4.67;;
5937;SDS011;2994;51.220;4.412;2023-07-13T11:45:26;6.33;;;4.50;;
5937;SDS011;2994;51.220;4.412;2023-07-13T11:47:54;5.10;;;3.50;;
5937;SDS011;2994;51.220;4.412;2023-07-13T11:50:23;5.63;;;3.90;;
5937;SDS011;2994;51.220;4.412;2023-07-13T11:52:49;3.83;;;3.50;;
5937;SDS011;2994;51.220;4.412;2023-07-13T11:55:18;4.67;;;3.67;;
5937;SDS011;2994;51.220;4.412;2023-07-13T11:57:51;5.20;;;3.90;;
5937;SDS011;2994;51.220;4.412;2023-07-13T12:00:25;5.33;;;4.80;;
5937;SDS011;2994;51.220;4.412;2023-07-13T12:02:54;5.83;;;4.13;;
5937;SDS011;2994;51.220;4.412;2023-07-13T12:05:22;4.50;;;3.90;;
5937;SDS011;2994;51.220;4.412;2023-07-13T12:07:48;7.37;;;4.87;;
5937;SDS011;2994;51.220;4.412;2023-07-13T12:10:21;3.53;;;3.23;;
5937;SDS011;2994;51.220;4.412;2023-07-13T12:12:57;6.13;;;4.00;;
5937;SDS011;2994;51.220;4.412;2023-07-13T12:15:44;4.93;;;3.53;;
5937;SDS011;2994;51.220;4.412;2023-07-13T12:18:21;5.50;;;4.50;;
5937;SDS011;2994;51.220;4.412;2023-07-13T12:20:49;3.80;;;3.10;;
5937;SDS011;2994;51.220;4.412;2023-07-13T12:23:24;6.23;;;3.70;;
5937;SDS011;2994;51.220;4.412;2023-07-13T12:25:53;4.20;;;3.37;;
5937;SDS011;2994;51.220;4.412;2023-07-13T12:28:21;4.47;;;3.53;;
5937;SDS011;2994;51.220;4.412;2023-07-13T12:30:51;4.43;;;3.90;;
5937;SDS011;2994;51.220;4.412;2023-07-13T12:33:23;3.93;;;3.03;;
5937;SDS011;2994;51.220;4.412;2023-07-13T12:35:53;4.07;;;3.43;;
5937;SDS011;2994;51.220;4.412;2023-07-13T12:38:18;5.13;;;4.10;;
5937;SDS011;2994;51.220;4.412;2023-07-13T12:40:48;3.73;;;3.43;;
5937;SDS011;2994;51.220;4.412;2023-07-13T12:43:16;4.30;;;3.77;;
5937;SDS011;2994;51.220;4.412;2023-07-13T12:48:28;4.10;;;3.70;;
5937;SDS011;2994;51.220;4.412;2023-07-13T12:50:54;3.57;;;3.27;;
5937;SDS011;2994;51.220;4.412;2023-07-13T12:53:22;2.97;;;2.47;;
5937;SDS011;2994;51.220;4.412;2023-07-13T12:55:54;3.73;;;2.33;;
5937;SDS011;2994;51.220;4.412;2023-07-13T12:58:28;2.93;;;2.60;;
5937;SDS011;2994;51.220;4.412;2023-07-13T13:00:57;4.30;;;3.77;;
5937;SDS011;2994;51.220;4.412;2023-07-13T13:03:31;3.97;;;3.53;;
5937;SDS011;2994;51.220;4.412;2023-07-13T13:08:43;3.70;;;2.93;;
5937;SDS011;2994;51.220;4.412;2023-07-13T13:11:10;4.77;;;3.17;;
5937;SDS011;2994;51.220;4.412;2023-07-13T13:13:35;3.17;;;2.40;;
5937;SDS011;2994;51.220;4.412;2023-07-13T13:16:02;4.53;;;3.10;;
5937;SDS011;2994;51.220;4.412;2023-07-13T13:18:39;5.53;;;3.57;;
5937;SDS011;2994;51.220;4.412;2023-07-13T13:21:04;3.50;;;2.80;;
5937;SDS011;2994;51.220;4.412;2023-07-13T13:23:30;4.47;;;3.63;;
5937;SDS011;2994;51.220;4.412;2023-07-13T13:25:55;4.70;;;3.27;;
5937;SDS011;2994;51.220;4.412;2023-07-13T13:28:21;3.53;;;2.93;;
5937;SDS011;2994;51.220;4.412;2023-07-13T13:30:47;6.90;;;2.90;;
5937;SDS011;2994;51.220;4.412;2023-07-13T13:33:16;6.13;;;4.70;;
5937;SDS011;2994;51.220;4.412;2023-07-13T13:35:42;5.57;;;4.50;;
5937;SDS011;2994;51.220;4.412;2023-07-13T13:38:15;5.00;;;4.03;;
5937;SDS011;2994;51.220;4.412;2023-07-13T13:40:45;4.30;;;3.90;;
5937;SDS011;2994;51.220;4.412;2023-07-13T13:45:43;5.60;;;4.60;;
5937;SDS011;2994;51.220;4.412;2023-07-13T13:48:14;5.13;;;3.90;;
5937;SDS011;2994;51.220;4.412;2023-07-13T13:50:44;7.27;;;4.00;;
5937;SDS011;2994;51.220;4.412;2023-07-13T13:53:10;4.93;;;3.57;;
5937;SDS011;2994;51.220;4.412;2023-07-13T13:55:38;5.77;;;5.07;;
5937;SDS011;2994;51.220;4.412;2023-07-13T13:58:03;5.10;;;4.37;;
5937;SDS011;2994;51.220;4.412;2023-07-13T14:00:29;4.13;;;3.73;;
5937;SDS011;2994;51.220;4.412;2023-07-13T14:02:55;5.07;;;3.13;;
5937;SDS011;2994;51.220;4.412;2023-07-13T14:05:23;4.33;;;3.47;;
5937;SDS011;2994;51.220;4.412;2023-07-13T14:07:51;4.17;;;3.77;;
5937;SDS011;2994;51.220;4.412;2023-07-13T14:10:18;5.63;;;3.40;;
5937;SDS011;2994;51.220;4.412;2023-07-13T14:12:47;5.63;;;3.67;;
5937;SDS011;2994;51.220;4.412;2023-07-13T14:15:28;4.77;;;3.40;;
5937;SDS011;2994;51.220;4.412;2023-07-13T14:17:55;5.00;;;3.80;;
5937;SDS011;2994;51.220;4.412;2023-07-13T14:20:23;3.73;;;3.07;;
5937;SDS011;2994;51.220;4.412;2023-07-13T14:22:50;5.43;;;4.00;;
5937;SDS011;2994;51.220;4.412;2023-07-13T14:25:17;6.53;;;4.10;;
5937;SDS011;2994;51.220;4.412;2023-07-13T14:27:44;4.53;;;4.07;;
5937;SDS011;2994;51.220;4.412;2023-07-13T14:30:15;4.63;;;3.70;;
5937;SDS011;2994;51.220;4.412;2023-07-13T14:32:43;5.43;;;3.70;;
5937;SDS011;2994;51.220;4.412;2023-07-13T14:35:16;3.30;;;2.97;;
5937;SDS011;2994;51.220;4.412;2023-07-13T14:37:43;4.87;;;4.00;;
5937;SDS011;2994;51.220;4.412;2023-07-13T14:40:16;5.50;;;4.10;;
5937;SDS011;2994;51.220;4.412;2023-07-13T14:42:44;6.97;;;3.43;;
5937;SDS011;2994;51.220;4.412;2023-07-13T14:45:13;3.50;;;2.90;;
5937;SDS011;2994;51.220;4.412;2023-07-13T14:47:40;4.17;;;2.87;;
5937;SDS011;2994;51.220;4.412;2023-07-13T14:50:11;3.40;;;3.00;;
5937;SDS011;2994;51.220;4.412;2023-07-13T14:52:42;5.33;;;2.73;;
5937;SDS011;2994;51.220;4.412;2023-07-13T14:55:12;3.73;;;3.43;;
5937;SDS011;2994;51.220;4.412;2023-07-13T14:57:39;3.23;;;2.60;;
5937;SDS011;2994;51.220;4.412;2023-07-13T15:00:07;4.37;;;2.73;;
5937;SDS011;2994;51.220;4.412;2023-07-13T15:02:38;4.10;;;2.63;;
5937;SDS011;2994;51.220;4.412;2023-07-13T15:05:14;5.60;;;2.73;;
5937;SDS011;2994;51.220;4.412;2023-07-13T15:07:41;4.70;;;3.60;;
5937;SDS011;2994;51.220;4.412;2023-07-13T15:10:28;4.63;;;3.10;;
5937;SDS011;2994;51.220;4.412;2023-07-13T15:13:01;3.07;;;2.73;;
5937;SDS011;2994;51.220;4.412;2023-07-13T15:15:43;4.70;;;3.57;;
5937;SDS011;2994;51.220;4.412;2023-07-13T15:18:11;5.27;;;3.53;;
5937;SDS011;2994;51.220;4.412;2023-07-13T15:20:37;4.23;;;2.60;;
5937;SDS011;2994;51.220;4.412;2023-07-13T15:23:03;3.30;;;2.47;;
5937;SDS011;2994;51.220;4.412;2023-07-13T15:25:30;3.47;;;3.17;;
5937;SDS011;2994;51.220;4.412;2023-07-13T15:27:58;3.87;;;2.90;;
5937;SDS011;2994;51.220;4.412;2023-07-13T15:30:25;5.83;;;3.00;;
5937;SDS011;2994;51.220;4.412;2023-07-13T15:32:53;7.23;;;3.30;;
5937;SDS011;2994;51.220;4.412;2023-07-13T15:35:21;3.77;;;2.97;;
5937;SDS011;2994;51.220;4.412;2023-07-13T15:37:50;4.20;;;3.13;;
5937;SDS011;2994;51.220;4.412;2023-07-13T15:40:16;4.00;;;3.33;;
5937;SDS011;2994;51.220;4.412;2023-07-13T15:42:42;4.80;;;3.10;;
5937;SDS011;2994;51.220;4.412;2023-07-13T15:45:15;4.10;;;3.20;;
5937;SDS011;2994;51.220;4.412;2023-07-13T15:47:44;5.20;;;3.70;;
5937;SDS011;2994;51.220;4.412;2023-07-13T15:50:14;4.30;;;3.20;;
5937;SDS011;2994;51.220;4.412;2023-07-13T15:52:41;7.23;;;3.87;;
5937;SDS011;2994;51.220;4.412;2023-07-13T15:55:09;4.40;;;3.93;;
5937;SDS011;2994;51.220;4.412;2023-07-13T15:57:39;3.80;;;3.20;;
5937;SDS011;2994;51.220;4.412;2023-07-13T16:00:20;4.43;;;3.43;;
5937;SDS011;2994;51.220;4.412;2023-07-13T16:02:48;3.20;;;2.90;;
5937;SDS011;2994;51.220;4.412;2023-07-13T16:05:15;3.80;;;2.90;;